Time;durP1;ratioP1;P1;durP2;ratioP2;P2;SDS_P1;SDS_P2;PMS_P1;PMS_P2;Temp;Humidity;BMP_temperature;BMP_pressure;BME280_temperature;BME280_humidity;BME280_pressure;Samples;Min_cycle;Max_cycle;Signal;HPM_P1;HPM_P2
2022/09/16 00:01:34;;;;;;;10.18;3.40;;;;;;;;;;5111289;28;20020;-72
2022/09/16 00:04:00;;;;;;;7.85;3.28;;;;;;;;;;5111058;28;20081;-72
2022/09/16 00:06:28;;;;;;;6.07;2.90;;;;;;;;;;5111194;28;20069;-72
2022/09/16 00:08:55;;;;;;;5.82;2.75;;;;;;;;;;5111194;28;20030;-72
2022/09/16 00:13:16;;;;;;;6.57;3.10;;;;;;;;;;5071257;28;20383;-72
2022/09/16 00:17:08;;;;;;;5.28;2.75;;;;;;;;;;5111086;27;20792;-72
2022/09/16 00:19:35;;;;;;;4.35;2.22;;;;;;;;;;5110068;28;20494;-72
2022/09/16 00:22:01;;;;;;;6.30;2.58;;;;;;;;;;5111260;28;20023;-72
2022/09/16 00:25:36;;;;;;;9.57;2.90;;;;;;;;;;5110936;27;20445;-72
2022/09/16 00:29:28;;;;;;;7.00;3.03;;;;;;;;;;5111431;27;20996;-72
2022/09/16 00:31:54;;;;;;;5.40;2.85;;;;;;;;;;5111073;28;20110;-72
2022/09/16 00:36:09;;;;;;;8.48;2.70;;;;;;;;;;5111865;27;20407;-72
2022/09/16 00:38:35;;;;;;;13.75;3.85;;;;;;;;;;5110984;28;20035;-72
2022/09/16 00:41:02;;;;;;;6.10;3.22;;;;;;;;;;5110008;28;20119;-72
2022/09/16 00:45:01;;;;;;;5.60;3.13;;;;;;;;;;5111697;27;20385;-72
2022/09/16 00:49:21;;;;;;;6.38;2.92;;;;;;;;;;5111843;27;20549;-72
2022/09/16 00:52:18;;;;;;;5.95;3.17;;;;;;;;;;5111606;27;20393;-73
2022/09/16 00:54:44;;;;;;;15.35;3.03;;;;;;;;;;5111333;28;20028;-72
2022/09/16 00:59:28;;;;;;;8.68;3.33;;;;;;;;;;5111046;27;20559;-72
2022/09/16 01:01:55;;;;;;;6.00;2.83;;;;;;;;;;5127231;28;20031;-72
2022/09/16 01:04:34;;;;;;;5.95;3.15;;;;;;;;;;5111328;28;20388;-73
2022/09/16 01:07:01;;;;;;;6.38;3.20;;;;;;;;;;5111034;28;20078;-72
2022/09/16 01:09:28;;;;;;;5.13;2.40;;;;;;;;;;5111448;28;20020;-72
2022/09/16 01:14:51;;;;;;;5.70;2.67;;;;;;;;;;5111259;27;20385;-72
2022/09/16 01:16:44;;;;;;;9.00;3.05;;;;;;;;;;5111169;28;20114;-72
2022/09/16 01:19:21;;;;;;;5.85;2.85;;;;;;;;;;5111466;28;20380;-73
2022/09/16 01:22:05;;;;;;;10.77;2.47;;;;;;;;;;5110907;28;20418;-73
2022/09/16 01:24:49;;;;;;;8.75;3.10;;;;;;;;;;5109893;28;20120;-73
2022/09/16 01:27:16;;;;;;;6.22;2.92;;;;;;;;;;5111251;28;20472;-73
2022/09/16 01:34:29;;;;;;;6.00;2.90;;;;;;;;;;5070852;28;20788;-72
2022/09/16 01:37:04;;;;;;;4.97;2.75;;;;;;;;;;5071010;28;20020;-72
2022/09/16 01:45:37;;;;;;;6.47;2.45;;;;;;;;;;5112160;27;20409;-72
2022/09/16 01:49:22;;;;;;;5.70;3.03;;;;;;;;;;5111248;27;20561;-72
2022/09/16 01:51:52;;;;;;;5.70;2.83;;;;;;;;;;5110094;28;20111;-72
2022/09/16 01:54:31;;;;;;;4.50;2.65;;;;;;;;;;5111340;28;20030;-72
2022/09/16 01:57:06;;;;;;;4.90;2.58;;;;;;;;;;5109687;28;20027;-72
2022/09/16 01:59:59;;;;;;;4.75;2.63;;;;;;;;;;5111217;28;20094;-72
2022/09/16 02:05:27;;;;;;;6.47;2.78;;;;;;;;;;5111541;27;20566;-72
2022/09/16 02:07:56;;;;;;;5.13;2.60;;;;;;;;;;5111370;28;20065;-73
2022/09/16 02:10:26;;;;;;;6.78;3.08;;;;;;;;;;5110990;28;20027;-73
2022/09/16 02:12:53;;;;;;;7.35;3.55;;;;;;;;;;5111291;28;20043;-72
2022/09/16 02:15:22;;;;;;;7.28;3.08;;;;;;;;;;5111315;28;20023;-72
2022/09/16 02:20:32;;;;;;;7.72;3.33;;;;;;;;;;5111459;27;20397;-72
2022/09/16 02:25:07;;;;;;;7.82;3.30;;;;;;;;;;5111085;27;20120;-72
2022/09/16 02:29:39;;;;;;;5.70;3.50;;;;;;;;;;5111423;27;20462;-72
2022/09/16 02:34:09;;;;;;;7.10;3.70;;;;;;;;;;5112049;27;20389;-73
2022/09/16 02:36:38;;;;;;;6.88;3.92;;;;;;;;;;5111379;28;20042;-72
2022/09/16 02:39:08;;;;;;;6.38;2.80;;;;;;;;;;5110884;28;20016;-72
2022/09/16 02:42:21;;;;;;;9.18;3.53;;;;;;;;;;5071686;28;20388;-73
2022/09/16 02:50:45;;;;;;;6.10;2.92;;;;;;;;;;5111563;27;20404;-72
2022/09/16 02:54:35;;;;;;;7.85;4.07;;;;;;;;;;5112203;27;20912;-72
2022/09/16 02:57:45;;;;;;;7.50;3.15;;;;;;;;;;5111977;27;20385;-72
2022/09/16 03:00:11;;;;;;;9.38;2.90;;;;;;;;;;5111014;28;20434;-72
2022/09/16 03:06:47;;;;;;;5.40;2.90;;;;;;;;;;5111087;27;20397;-72
2022/09/16 03:09:49;;;;;;;6.78;3.70;;;;;;;;;;5112176;27;20406;-72
2022/09/16 03:12:48;;;;;;;5.28;3.00;;;;;;;;;;5111332;27;20388;-73
2022/09/16 03:15:36;;;;;;;5.88;3.22;;;;;;;;;;5110164;28;20032;-73
2022/09/16 03:18:28;;;;;;;7.68;2.80;;;;;;;;;;5111330;28;20027;-73
2022/09/16 03:22:57;;;;;;;4.55;2.60;;;;;;;;;;5111767;27;20400;-72
2022/09/16 03:27:51;;;;;;;7.25;2.83;;;;;;;;;;5111249;27;20462;-72
2022/09/16 03:30:18;;;;;;;7.07;2.90;;;;;;;;;;5111398;28;20488;-72
2022/09/16 03:32:48;;;;;;;5.05;2.92;;;;;;;;;;5111299;28;20099;-72
2022/09/16 03:35:25;;;;;;;6.57;2.72;;;;;;;;;;5110855;28;20020;-73
2022/09/16 03:37:53;;;;;;;5.10;2.75;;;;;;;;;;5111501;28;20020;-72
2022/09/16 03:41:27;;;;;;;4.80;2.95;;;;;;;;;;5111262;27;20553;-72
2022/09/16 03:43:54;;;;;;;8.68;3.30;;;;;;;;;;5111382;28;20396;-73
2022/09/16 03:47:23;;;;;;;8.10;3.75;;;;;;;;;;5111571;27;20431;-72
2022/09/16 03:49:50;;;;;;;7.75;3.75;;;;;;;;;;5109831;28;20387;-72
2022/09/16 03:52:19;;;;;;;9.05;3.45;;;;;;;;;;5111335;28;20020;-73
2022/09/16 03:56:23;;;;;;;8.48;3.72;;;;;;;;;;5111139;27;20442;-72
2022/09/16 03:58:49;;;;;;;5.50;3.25;;;;;;;;;;5110151;28;20028;-73
2022/09/16 04:02:11;;;;;;;6.43;3.25;;;;;;;;;;5111292;27;20565;-72
2022/09/16 04:05:52;;;;;;;8.18;3.28;;;;;;;;;;5111482;27;20388;-73
2022/09/16 04:08:53;;;;;;;12.13;4.25;;;;;;;;;;5111699;27;20450;-73
2022/09/16 04:13:20;;;;;;;10.88;5.68;;;;;;;;;;5111618;27;20389;-73
2022/09/16 04:16:35;;;;;;;9.00;4.90;;;;;;;;;;5111362;27;20392;-73
2022/09/16 04:19:01;;;;;;;9.48;4.55;;;;;;;;;;5111302;28;20102;-73
2022/09/16 04:22:13;;;;;;;8.55;4.25;;;;;;;;;;5112058;27;20384;-72
2022/09/16 04:24:39;;;;;;;8.00;3.95;;;;;;;;;;5109707;28;20073;-73
2022/09/16 04:28:08;;;;;;;10.10;4.30;;;;;;;;;;5112033;27;20473;-73
2022/09/16 04:36:21;;;;;;;7.90;2.97;;;;;;;;;;5112217;27;20908;-72
2022/09/16 04:38:47;;;;;;;4.72;2.80;;;;;;;;;;5110966;28;20085;-73
2022/09/16 04:42:04;;;;;;;4.80;3.00;;;;;;;;;;5111484;27;20400;-73
2022/09/16 04:46:27;;;;;;;6.72;2.90;;;;;;;;;;5111326;27;20454;-72
2022/09/16 04:48:54;;;;;;;6.25;3.28;;;;;;;;;;5111687;28;20559;-72
2022/09/16 04:51:21;;;;;;;7.53;3.55;;;;;;;;;;5110928;28;20023;-72
2022/09/16 04:53:47;;;;;;;8.35;3.20;;;;;;;;;;5110629;28;20012;-73
2022/09/16 04:56:17;;;;;;;5.60;3.40;;;;;;;;;;5111108;28;20024;-73
2022/09/16 04:58:56;;;;;;;13.55;6.60;;;;;;;;;;5111327;27;20389;-72
2022/09/16 05:02:53;;;;;;;19.42;10.38;;;;;;;;;;5111274;27;20617;-72
2022/09/16 05:07:21;;;;;;;15.15;7.07;;;;;;;;;;5109079;27;20850;-73
2022/09/16 05:12:35;;;;;;;7.85;4.13;;;;;;;;;;5109982;27;21000;-73
2022/09/16 05:15:01;;;;;;;6.93;3.88;;;;;;;;;;5109962;28;20111;-74
2022/09/16 05:17:30;;;;;;;6.80;3.95;;;;;;;;;;5106623;28;20032;-74
2022/09/16 05:19:56;;;;;;;8.00;5.65;;;;;;;;;;5101586;28;20379;-75
2022/09/16 05:25:27;;;;;;;8.60;4.45;;;;;;;;;;5094215;27;20414;-76
2022/09/16 05:29:14;;;;;;;6.68;4.10;;;;;;;;;;5106951;27;20397;-74
2022/09/16 05:32:39;;;;;;;15.52;4.43;;;;;;;;;;5108164;27;20831;-75
2022/09/16 05:35:06;;;;;;;7.32;4.05;;;;;;;;;;5111222;28;20054;-76
2022/09/16 05:39:03;;;;;;;7.07;3.78;;;;;;;;;;5041982;28;20394;-74
2022/09/16 05:42:26;;;;;;;9.75;4.13;;;;;;;;;;5125170;27;20829;-75
2022/09/16 05:44:52;;;;;;;8.40;4.35;;;;;;;;;;5085807;28;20032;-75
2022/09/16 05:47:18;;;;;;;10.95;5.50;;;;;;;;;;5103789;28;20616;-74
2022/09/16 05:49:45;;;;;;;25.15;8.77;;;;;;;;;;5085733;28;20028;-75
2022/09/16 05:53:39;;;;;;;17.48;7.28;;;;;;;;;;5103868;27;20465;-74
2022/09/16 05:56:09;;;;;;;13.23;5.72;;;;;;;;;;5105299;28;20049;-74
2022/09/16 05:58:36;;;;;;;13.88;6.18;;;;;;;;;;5107281;28;20561;-75
2022/09/16 06:09:17;;;;;;;9.85;3.22;;;;;;;;;;5098985;27;20447;-74
2022/09/16 06:11:45;;;;;;;8.10;3.97;;;;;;;;;;5087804;28;20032;-77
2022/09/16 06:17:57;;;;;;;6.13;3.90;;;;;;;;;;5055092;28;20531;-73
2022/09/16 06:20:23;;;;;;;9.15;3.17;;;;;;;;;;5067786;28;20044;-75
2022/09/16 06:23:05;;;;;;;10.10;3.40;;;;;;;;;;5109247;27;20745;-76
2022/09/16 06:25:33;;;;;;;6.13;3.30;;;;;;;;;;5110474;28;20403;-74
2022/09/16 06:29:01;;;;;;;5.97;3.50;;;;;;;;;;5110771;27;20608;-72
2022/09/16 06:31:28;;;;;;;7.65;3.90;;;;;;;;;;5108564;28;20032;-74
2022/09/16 06:33:54;;;;;;;6.47;3.33;;;;;;;;;;5113977;28;20119;-75
2022/09/16 06:36:24;;;;;;;6.47;3.33;;;;;;;;;;5128293;28;20028;-74
2022/09/16 06:40:06;;;;;;;9.32;3.70;;;;;;;;;;5124139;27;21155;-76
2022/09/16 06:42:32;;;;;;;7.20;3.28;;;;;;;;;;5127016;28;20064;-75
2022/09/16 06:47:23;;;;;;;7.93;3.13;;;;;;;;;;5108727;27;20462;-76
2022/09/16 06:49:49;;;;;;;7.05;3.30;;;;;;;;;;5107073;28;20020;-75
2022/09/16 06:54:02;;;;;;;6.13;3.55;;;;;;;;;;5120725;27;20418;-77
2022/09/16 06:56:40;;;;;;;10.02;4.13;;;;;;;;;;5112863;28;20038;-76
2022/09/16 06:59:07;;;;;;;6.68;3.20;;;;;;;;;;5109025;28;20062;-77
2022/09/16 07:01:33;;;;;;;9.75;5.63;;;;;;;;;;5108529;28;20070;-75
2022/09/16 07:04:03;;;;;;;7.72;3.70;;;;;;;;;;5107740;28;20135;-75
2022/09/16 07:08:38;;;;;;;6.15;2.67;;;;;;;;;;5110287;27;20115;-75
2022/09/16 07:11:33;;;;;;;6.68;2.63;;;;;;;;;;5108213;27;20942;-75
2022/09/16 07:17:16;;;;;;;5.78;2.47;;;;;;;;;;5106491;27;20396;-71
2022/09/16 07:19:43;;;;;;;7.00;2.97;;;;;;;;;;5106288;28;20016;-75
2022/09/16 07:22:10;;;;;;;7.20;3.22;;;;;;;;;;5122558;28;20031;-78
2022/09/16 07:24:36;;;;;;;5.72;2.20;;;;;;;;;;5105467;28;20012;-77
2022/09/16 07:27:02;;;;;;;7.82;2.35;;;;;;;;;;5106284;28;20038;-76
2022/09/16 07:33:03;;;;;;;7.55;2.42;;;;;;;;;;5109025;27;20397;-78
2022/09/16 07:37:07;;;;;;;7.10;2.47;;;;;;;;;;5110751;27;20393;-75
2022/09/16 07:39:33;;;;;;;7.95;2.10;;;;;;;;;;5110215;28;20042;-74
2022/09/16 07:42:00;;;;;;;7.72;2.20;;;;;;;;;;5110714;28;20020;-75
2022/09/16 07:44:27;;;;;;;6.50;2.65;;;;;;;;;;5110689;28;20030;-76
2022/09/16 07:46:53;;;;;;;6.40;2.40;;;;;;;;;;5108965;28;20115;-76
2022/09/16 07:49:19;;;;;;;5.82;2.60;;;;;;;;;;5107453;28;20023;-80
2022/09/16 07:52:55;;;;;;;7.65;2.08;;;;;;;;;;5110123;27;20389;-75
2022/09/16 07:56:09;;;;;;;6.07;2.17;;;;;;;;;;5110545;27;20397;-78
2022/09/16 07:58:37;;;;;;;9.60;2.55;;;;;;;;;;5108406;28;20024;-77
2022/09/16 08:01:04;;;;;;;8.75;2.13;;;;;;;;;;5106881;28;20422;-77
2022/09/16 08:03:30;;;;;;;8.63;2.17;;;;;;;;;;5107993;28;20055;-77
2022/09/16 08:06:04;;;;;;;6.22;2.38;;;;;;;;;;5107396;28;20023;-76
2022/09/16 08:08:31;;;;;;;5.32;2.03;;;;;;;;;;5103367;28;20043;-77
2022/09/16 08:10:57;;;;;;;8.23;2.70;;;;;;;;;;5102073;28;20067;-75
2022/09/16 08:14:51;;;;;;;6.32;2.10;;;;;;;;;;5065670;28;20383;-78
2022/09/16 08:17:17;;;;;;;7.10;2.45;;;;;;;;;;5065733;28;20047;-76
2022/09/16 08:19:43;;;;;;;4.93;2.05;;;;;;;;;;5063884;28;20408;-76
2022/09/16 08:22:10;;;;;;;11.32;3.50;;;;;;;;;;5064016;28;20029;-76
2022/09/16 08:26:11;;;;;;;6.72;2.15;;;;;;;;;;5114491;27;20445;-77
2022/09/16 08:28:38;;;;;;;6.65;2.05;;;;;;;;;;5124294;28;20050;-73
2022/09/16 08:31:04;;;;;;;5.18;1.98;;;;;;;;;;5108791;28;20383;-75
2022/09/16 08:33:31;;;;;;;9.32;2.70;;;;;;;;;;5114986;28;20023;-77
2022/09/16 08:36:37;;;;;;;10.77;2.08;;;;;;;;;;5105341;27;20405;-75
2022/09/16 08:39:04;;;;;;;3.88;1.85;;;;;;;;;;5108706;28;20472;-74
2022/09/16 08:41:39;;;;;;;5.70;1.70;;;;;;;;;;5106337;28;20098;-74
2022/09/16 08:44:35;;;;;;;11.95;2.13;;;;;;;;;;5087862;28;20056;-74
2022/09/16 08:47:02;;;;;;;4.25;1.58;;;;;;;;;;5075285;28;20036;-74
2022/09/16 08:49:37;;;;;;;5.82;1.88;;;;;;;;;;5087978;28;20107;-76
2022/09/16 08:52:14;;;;;;;9.57;2.08;;;;;;;;;;5102685;28;20488;-75
2022/09/16 08:54:46;;;;;;;11.43;2.17;;;;;;;;;;5097759;28;20030;-75
2022/09/16 08:57:18;;;;;;;7.95;1.52;;;;;;;;;;5088430;28;20020;-76
2022/09/16 08:59:47;;;;;;;10.07;2.25;;;;;;;;;;5087766;28;20028;-75
2022/09/16 09:02:22;;;;;;;6.35;2.45;;;;;;;;;;5094729;28;20051;-75
2022/09/16 09:04:48;;;;;;;7.22;2.13;;;;;;;;;;5105759;28;20032;-75
2022/09/16 09:07:26;;;;;;;7.63;1.60;;;;;;;;;;5106967;28;20468;-76
2022/09/16 09:09:55;;;;;;;6.13;1.80;;;;;;;;;;5107322;28;20024;-75
2022/09/16 09:12:34;;;;;;;6.32;2.05;;;;;;;;;;5107507;28;20061;-76
2022/09/16 09:15:24;;;;;;;7.35;2.08;;;;;;;;;;5108488;28;20476;-76
2022/09/16 09:17:50;;;;;;;8.23;3.05;;;;;;;;;;5108266;28;20397;-75
2022/09/16 09:22:58;;;;;;;7.20;2.65;;;;;;;;;;5066996;28;20788;-74
2022/09/16 09:25:27;;;;;;;9.82;4.43;;;;;;;;;;5067058;28;20032;-75
2022/09/16 09:27:53;;;;;;;10.25;3.38;;;;;;;;;;5065974;28;20191;-74
2022/09/16 09:30:26;;;;;;;10.73;3.05;;;;;;;;;;5067830;28;20020;-75
2022/09/16 09:32:55;;;;;;;10.85;2.63;;;;;;;;;;5066148;28;20063;-75
2022/09/16 09:35:30;;;;;;;9.02;2.60;;;;;;;;;;5069809;28;20389;-73
2022/09/16 09:38:07;;;;;;;12.38;3.35;;;;;;;;;;5069884;28;20091;-75
2022/09/16 09:43:10;;;;;;;7.20;2.55;;;;;;;;;;5070235;28;20668;-74
2022/09/16 09:45:38;;;;;;;11.30;2.95;;;;;;;;;;5070085;28;20033;-73
2022/09/16 09:48:22;;;;;;;13.48;3.25;;;;;;;;;;5067965;28;20028;-72
2022/09/16 09:52:22;;;;;;;7.70;2.50;;;;;;;;;;5109792;27;20426;-73
2022/09/16 09:54:49;;;;;;;;;;;;;;;;;;5110092;28;20432;-74
2022/09/16 09:57:24;;;;;;;9.07;2.33;;;;;;;;;;5110633;28;19953;-74
2022/09/16 09:59:57;;;;;;;5.95;2.00;;;;;;;;;;5110640;28;20047;-72
2022/09/16 10:02:23;;;;;;;8.20;2.72;;;;;;;;;;5109858;28;20125;-73
2022/09/16 10:04:49;;;;;;;7.05;1.90;;;;;;;;;;5110374;28;20020;-75
2022/09/16 10:10:40;;;;;;;9.88;2.15;;;;;;;;;;5069823;28;20422;-74
2022/09/16 10:13:10;;;;;;;10.77;2.00;;;;;;;;;;5069762;28;20028;-78
2022/09/16 10:15:36;;;;;;;10.80;2.53;;;;;;;;;;5051879;28;20036;-80
2022/09/16 10:18:09;;;;;;;9.85;2.60;;;;;;;;;;5070259;28;20025;-77
2022/09/16 10:20:36;;;;;;;8.13;2.42;;;;;;;;;;5070031;28;20099;-78
2022/09/16 10:23:05;;;;;;;5.63;1.98;;;;;;;;;;5051990;28;20039;-78
2022/09/16 10:26:42;;;;;;;6.45;1.77;;;;;;;;;;5070400;28;20403;-77
2022/09/16 10:29:21;;;;;;;9.20;2.50;;;;;;;;;;5068971;28;20020;-77
2022/09/16 10:31:47;;;;;;;4.38;1.70;;;;;;;;;;5069233;28;20020;-78
2022/09/16 10:34:33;;;;;;;3.75;1.60;;;;;;;;;;5068449;28;20021;-76
2022/09/16 10:37:02;;;;;;;5.72;2.00;;;;;;;;;;5066350;28;20067;-77
2022/09/16 10:39:29;;;;;;;586.83;535.72;;;;;;;;;;5068264;28;20056;-77
2022/09/16 10:44:12;;;;;;;7.05;2.53;;;;;;;;;;5109601;27;20785;-76
2022/09/16 10:46:49;;;;;;;6.32;1.83;;;;;;;;;;5109590;28;20383;-77
2022/09/16 10:50:16;;;;;;;8.35;2.22;;;;;;;;;;5067767;28;20417;-76
2022/09/16 10:54:53;;;;;;;5.63;1.98;;;;;;;;;;5108688;27;20661;-76
2022/09/16 10:57:24;;;;;;;5.38;1.83;;;;;;;;;;5108246;28;20353;-78
2022/09/16 11:00:10;;;;;;;3.75;1.60;;;;;;;;;;5107047;28;20518;-76
2022/09/16 11:02:46;;;;;;;4.38;1.63;;;;;;;;;;5108667;28;20019;-77
2022/09/16 11:05:18;;;;;;;6.75;1.30;;;;;;;;;;5108524;28;20050;-77
2022/09/16 11:07:59;;;;;;;5.50;1.55;;;;;;;;;;5108163;28;20024;-80
2022/09/16 11:10:47;;;;;;;4.22;1.25;;;;;;;;;;5107132;28;20057;-75
2022/09/16 11:13:13;;;;;;;4.47;1.17;;;;;;;;;;5106089;28;20088;-74
2022/09/16 11:15:42;;;;;;;1.92;1.30;;;;;;;;;;5107296;28;20461;-76
2022/09/16 11:18:11;;;;;;;4.30;1.52;;;;;;;;;;5106457;28;20085;-77
2022/09/16 11:20:56;;;;;;;1.77;0.90;;;;;;;;;;5108128;28;20104;-74
2022/09/16 11:23:31;;;;;;;5.72;1.85;;;;;;;;;;5108351;28;20548;-74
2022/09/16 11:26:06;;;;;;;2.67;1.15;;;;;;;;;;5107990;28;20020;-79
2022/09/16 11:28:37;;;;;;;3.10;1.00;;;;;;;;;;5108337;28;20031;-79
2022/09/16 11:31:13;;;;;;;3.03;1.20;;;;;;;;;;5107634;28;20028;-75
2022/09/16 11:33:45;;;;;;;3.67;1.05;;;;;;;;;;5098911;28;20082;-76
2022/09/16 11:36:50;;;;;;;2.67;1.10;;;;;;;;;;5099078;28;20120;-74
2022/09/16 11:39:37;;;;;;;1.63;0.85;;;;;;;;;;5089824;28;20074;-73
2022/09/16 11:42:03;;;;;;;2.55;1.05;;;;;;;;;;5039392;28;20396;-74
2022/09/16 11:44:45;;;;;;;7.05;1.20;;;;;;;;;;5089683;28;20020;-75
2022/09/16 11:47:11;;;;;;;;;;;;;;;;;;5087747;28;20031;-74
2022/09/16 11:49:54;;;;;;;4.55;1.80;;;;;;;;;;5088836;28;19908;-74
2022/09/16 11:52:33;;;;;;;5.45;2.00;;;;;;;;;;5089823;28;20035;-76
2022/09/16 11:55:12;;;;;;;2.83;1.20;;;;;;;;;;5088567;28;20028;-76
2022/09/16 11:57:41;;;;;;;3.45;1.45;;;;;;;;;;5088152;28;20039;-75
2022/09/16 12:00:12;;;;;;;6.00;2.38;;;;;;;;;;5088926;28;20366;-76
2022/09/16 12:02:56;;;;;;;8.25;2.50;;;;;;;;;;5090025;28;20021;-76
2022/09/16 12:05:40;;;;;;;6.75;2.15;;;;;;;;;;5090054;28;20056;-75
2022/09/16 12:08:08;;;;;;;6.68;1.75;;;;;;;;;;5089821;28;20025;-75
2022/09/16 12:12:12;;;;;;;4.40;1.30;;;;;;;;;;5111443;27;20401;-75
2022/09/16 12:14:42;;;;;;;6.03;1.63;;;;;;;;;;5110759;28;20054;-75
2022/09/16 12:17:12;;;;;;;3.38;1.20;;;;;;;;;;5111104;28;20393;-74
2022/09/16 12:20:01;;;;;;;5.22;1.50;;;;;;;;;;5111168;28;20024;-75
2022/09/16 12:22:27;;;;;;;5.07;1.92;;;;;;;;;;5102516;28;20035;-75
2022/09/16 12:24:59;;;;;;;5.30;1.95;;;;;;;;;;5110906;28;20020;-74
2022/09/16 12:27:48;;;;;;;4.85;1.58;;;;;;;;;;5110594;28;20032;-75
2022/09/16 12:31:59;;;;;;;5.32;1.30;;;;;;;;;;5111116;27;20397;-74
2022/09/16 12:34:40;;;;;;;5.80;2.30;;;;;;;;;;5111166;28;20089;-73
2022/09/16 12:37:27;;;;;;;7.03;1.90;;;;;;;;;;5110553;28;20077;-73
2022/09/16 12:39:53;;;;;;;2.95;1.45;;;;;;;;;;5100220;28;20040;-73
2022/09/16 12:42:41;;;;;;;3.75;1.40;;;;;;;;;;5110155;28;20024;-74
2022/09/16 12:45:17;;;;;;;7.28;1.25;;;;;;;;;;5107798;28;20369;-73
2022/09/16 12:47:52;;;;;;;2.83;1.15;;;;;;;;;;5109639;28;20081;-72
2022/09/16 12:50:21;;;;;;;6.32;0.85;;;;;;;;;;5106592;28;20123;-73
2022/09/16 12:53:11;;;;;;;3.92;0.82;;;;;;;;;;5109094;28;20016;-71
2022/09/16 12:56:56;;;;;;;4.70;1.17;;;;;;;;;;5109069;27;20467;-72
2022/09/16 12:59:25;;;;;;;6.18;2.20;;;;;;;;;;5108669;28;20059;-72
2022/09/16 13:01:53;;;;;;;7.85;1.60;;;;;;;;;;5110539;28;20048;-72
2022/09/16 13:04:23;;;;;;;2.00;1.02;;;;;;;;;;5110650;28;20069;-70
2022/09/16 13:07:54;;;;;;;5.13;1.42;;;;;;;;;;5112207;27;20405;-72
2022/09/16 13:11:51;;;;;;;4.55;1.50;;;;;;;;;;5111244;27;20609;-72
2022/09/16 13:14:22;;;;;;;3.70;1.15;;;;;;;;;;5111596;28;20024;-71
2022/09/16 13:16:53;;;;;;;5.45;1.27;;;;;;;;;;5111782;28;20117;-71
2022/09/16 13:19:38;;;;;;;4.25;1.13;;;;;;;;;;5110746;28;20376;-70
2022/09/16 13:22:41;;;;;;;6.03;1.92;;;;;;;;;;5111857;27;20415;-71
2022/09/16 13:25:25;;;;;;;4.22;1.40;;;;;;;;;;5110965;28;20122;-71
2022/09/16 13:27:55;;;;;;;3.22;1.30;;;;;;;;;;5111264;28;20421;-71
2022/09/16 13:30:32;;;;;;;3.47;1.45;;;;;;;;;;5111079;28;20418;-71
2022/09/16 13:33:00;;;;;;;5.00;1.20;;;;;;;;;;5110841;28;20476;-71
2022/09/16 13:35:32;;;;;;;2.72;1.35;;;;;;;;;;5111197;28;20483;-73
2022/09/16 13:39:31;;;;;;;3.53;1.45;;;;;;;;;;5111310;27;20826;-71
2022/09/16 13:42:08;;;;;;;4.20;1.88;;;;;;;;;;5110099;28;20031;-71
2022/09/16 13:44:38;;;;;;;3.63;1.40;;;;;;;;;;5111355;28;20028;-71
2022/09/16 13:47:13;;;;;;;4.28;1.90;;;;;;;;;;5110852;28;20024;-72
2022/09/16 13:50:12;;;;;;;4.03;1.65;;;;;;;;;;5109894;28;20441;-72
2022/09/16 13:52:38;;;;;;;4.03;1.33;;;;;;;;;;5076822;28;20040;-72
2022/09/16 13:57:37;;;;;;;10.48;6.07;;;;;;;;;;5111840;27;20904;-71
2022/09/16 14:00:04;;;;;;;6.07;2.33;;;;;;;;;;5107878;28;20059;-71
2022/09/16 14:03:20;;;;;;;7.90;3.17;;;;;;;;;;5111896;27;20392;-71
2022/09/16 14:05:58;;;;;;;5.28;2.08;;;;;;;;;;5111579;28;20077;-71
2022/09/16 14:08:43;;;;;;;4.43;1.98;;;;;;;;;;5110969;28;20106;-72
2022/09/16 14:12:54;;;;;;;7.00;2.35;;;;;;;;;;5173814;27;20384;-73
2022/09/16 14:17:22;;;;;;;5.68;2.50;;;;;;;;;;5112129;27;20449;-71
2022/09/16 14:19:52;;;;;;;4.88;2.10;;;;;;;;;;5111299;28;20472;-71
2022/09/16 14:22:21;;;;;;;5.30;2.38;;;;;;;;;;5110762;28;20434;-71
2022/09/16 14:24:59;;;;;;;4.85;1.27;;;;;;;;;;5111649;27;20564;-71
2022/09/16 14:27:29;;;;;;;6.53;2.80;;;;;;;;;;5110840;28;20488;-71
2022/09/16 14:31:28;;;;;;;5.90;1.52;;;;;;;;;;5173444;27;20114;-71
2022/09/16 14:35:23;;;;;;;4.18;1.60;;;;;;;;;;5111153;27;20109;-72
2022/09/16 14:37:53;;;;;;;3.47;1.50;;;;;;;;;;5109728;28;20042;-72
2022/09/16 14:41:32;;;;;;;5.15;2.35;;;;;;;;;;5111139;27;20996;-71
2022/09/16 14:44:18;;;;;;;6.03;1.80;;;;;;;;;;5091852;27;20470;-71
2022/09/16 14:47:16;;;;;;;4.15;1.83;;;;;;;;;;5112104;27;20620;-72
2022/09/16 14:51:00;;;;;;;6.68;2.58;;;;;;;;;;5112014;27;20629;-73
2022/09/16 14:53:26;;;;;;;6.97;2.15;;;;;;;;;;5111635;28;20032;-72
2022/09/16 14:55:52;;;;;;;5.22;1.88;;;;;;;;;;5110776;28;20020;-72
2022/09/16 14:58:58;;;;;;;2.65;1.27;;;;;;;;;;5111542;27;20560;-73
2022/09/16 15:01:27;;;;;;;4.90;1.92;;;;;;;;;;5111466;28;20058;-72
2022/09/16 15:03:53;;;;;;;9.20;3.70;;;;;;;;;;5110784;28;20019;-72
2022/09/16 15:06:21;;;;;;;7.63;3.25;;;;;;;;;;5111196;28;20047;-72
2022/09/16 15:08:50;;;;;;;9.95;5.03;;;;;;;;;;5109874;28;20031;-72
2022/09/16 15:12:18;;;;;;;7.88;3.58;;;;;;;;;;5111906;27;20396;-73
2022/09/16 15:14:44;;;;;;;10.40;5.53;;;;;;;;;;5111659;28;20038;-72
2022/09/16 15:17:15;;;;;;;8.25;3.38;;;;;;;;;;5110925;28;20416;-73
2022/09/16 15:19:42;;;;;;;6.20;3.35;;;;;;;;;;5111317;28;20023;-73
2022/09/16 15:22:13;;;;;;;5.97;2.10;;;;;;;;;;5111157;28;20475;-73
2022/09/16 15:25:58;;;;;;;7.93;2.85;;;;;;;;;;5110971;27;20466;-73
2022/09/16 15:28:25;;;;;;;2.10;1.00;;;;;;;;;;5111350;28;20597;-73
2022/09/16 15:30:54;;;;;;;6.53;2.10;;;;;;;;;;5111261;28;20058;-73
2022/09/16 15:33:33;;;;;;;3.08;1.20;;;;;;;;;;5111549;28;20024;-73
2022/09/16 15:36:00;;;;;;;5.28;1.85;;;;;;;;;;5111181;28;20361;-73
2022/09/16 15:38:56;;;;;;;3.40;1.63;;;;;;;;;;5111507;27;20458;-73
2022/09/16 15:43:17;;;;;;;6.50;2.30;;;;;;;;;;5173336;27;20311;-72
2022/09/16 15:48:26;;;;;;;4.50;1.40;;;;;;;;;;5111813;27;20628;-73
2022/09/16 15:54:18;;;;;;;4.28;1.60;;;;;;;;;;5111001;27;20615;-72
2022/09/16 15:56:53;;;;;;;2.90;1.30;;;;;;;;;;5111222;28;20032;-72
2022/09/16 15:59:39;;;;;;;4.03;1.13;;;;;;;;;;5109501;28;20027;-72
2022/09/16 16:02:18;;;;;;;5.72;1.70;;;;;;;;;;5111036;28;20030;-73
2022/09/16 16:04:45;;;;;;;2.72;1.30;;;;;;;;;;5111094;28;20353;-73
2022/09/16 16:07:11;;;;;;;4.80;1.40;;;;;;;;;;5110625;28;20107;-72
2022/09/16 16:11:35;;;;;;;3.97;1.10;;;;;;;;;;5111806;27;20558;-72
2022/09/16 16:14:02;;;;;;;3.35;1.60;;;;;;;;;;5110799;28;20020;-72
2022/09/16 16:16:28;;;;;;;5.13;1.67;;;;;;;;;;5111185;28;20027;-73
2022/09/16 16:18:54;;;;;;;7.18;1.48;;;;;;;;;;5111304;28;20478;-72
2022/09/16 16:21:20;;;;;;;4.55;2.15;;;;;;;;;;5110645;28;20030;-73
2022/09/16 16:23:46;;;;;;;5.93;1.90;;;;;;;;;;5111054;28;20028;-72
2022/09/16 16:28:27;;;;;;;5.13;2.00;;;;;;;;;;5111011;27;20560;-73
2022/09/16 16:31:06;;;;;;;4.93;2.85;;;;;;;;;;5111326;28;20070;-73
2022/09/16 16:34:49;;;;;;;6.50;2.92;;;;;;;;;;5110995;27;20573;-72
2022/09/16 16:37:16;;;;;;;8.60;3.67;;;;;;;;;;5111448;28;20133;-71
2022/09/16 16:39:46;;;;;;;8.15;3.15;;;;;;;;;;5111236;28;20427;-72
2022/09/16 16:42:13;;;;;;;8.02;3.30;;;;;;;;;;5111000;28;20027;-72
2022/09/16 16:44:39;;;;;;;8.27;2.22;;;;;;;;;;5111163;28;20110;-72
2022/09/16 16:47:06;;;;;;;6.53;2.08;;;;;;;;;;5111054;28;20055;-72
2022/09/16 16:49:33;;;;;;;8.00;2.67;;;;;;;;;;5110710;28;20028;-72
2022/09/16 16:51:59;;;;;;;8.48;3.33;;;;;;;;;;5111014;28;20043;-72
2022/09/16 16:54:26;;;;;;;8.95;3.53;;;;;;;;;;5111116;28;20032;-72
2022/09/16 16:57:13;;;;;;;9.13;2.90;;;;;;;;;;5111049;27;20565;-73
2022/09/16 16:59:39;;;;;;;5.93;2.35;;;;;;;;;;5111338;28;20035;-73
2022/09/16 17:06:07;;;;;;;3.47;1.75;;;;;;;;;;5112027;27;20561;-72
2022/09/16 17:08:46;;;;;;;5.20;2.38;;;;;;;;;;5111948;27;20542;-73
2022/09/16 17:13:16;;;;;;;5.40;2.60;;;;;;;;;;5071081;28;20887;-73
2022/09/16 17:15:43;;;;;;;6.50;3.15;;;;;;;;;;5071161;28;20029;-72
2022/09/16 17:18:09;;;;;;;6.25;2.67;;;;;;;;;;5070278;28;20044;-72
2022/09/16 17:20:35;;;;;;;7.60;2.55;;;;;;;;;;5070659;28;20031;-72
2022/09/16 17:23:01;;;;;;;6.85;3.05;;;;;;;;;;5070593;28;20017;-72
2022/09/16 17:25:27;;;;;;;7.10;2.95;;;;;;;;;;5068861;28;20025;-72
2022/09/16 17:27:54;;;;;;;8.98;3.28;;;;;;;;;;5069079;28;20074;-72
2022/09/16 17:30:21;;;;;;;6.68;2.55;;;;;;;;;;5070388;28;20028;-73
2022/09/16 17:32:47;;;;;;;3.88;1.80;;;;;;;;;;5069552;28;20163;-72
2022/09/16 17:35:13;;;;;;;7.65;3.15;;;;;;;;;;5070114;28;20412;-71
2022/09/16 17:38:05;;;;;;;4.70;2.00;;;;;;;;;;5110442;27;20613;-71
2022/09/16 17:40:31;;;;;;;7.25;1.98;;;;;;;;;;5111286;28;20052;-72
2022/09/16 17:44:07;;;;;;;3.80;1.55;;;;;;;;;;5111313;27;20563;-72
2022/09/16 17:46:34;;;;;;;4.65;2.13;;;;;;;;;;5110952;28;20446;-72
2022/09/16 17:52:18;;;;;;;4.07;1.80;;;;;;;;;;5110759;27;20381;-71
2022/09/16 17:54:44;;;;;;;5.47;2.17;;;;;;;;;;5110052;28;20160;-72
2022/09/16 17:57:10;;;;;;;6.80;3.83;;;;;;;;;;5111282;28;20408;-70
2022/09/16 17:59:36;;;;;;;9.68;5.88;;;;;;;;;;5109639;28;20060;-72
2022/09/16 18:02:03;;;;;;;8.48;4.28;;;;;;;;;;5111466;28;20395;-71
2022/09/16 18:04:29;;;;;;;37.33;6.07;;;;;;;;;;5111329;28;20031;-71
2022/09/16 18:06:56;;;;;;;7.85;3.55;;;;;;;;;;5110747;28;20073;-72
2022/09/16 18:11:27;;;;;;;4.85;1.95;;;;;;;;;;5111607;27;20912;-70
2022/09/16 18:13:56;;;;;;;7.15;1.75;;;;;;;;;;5111109;28;20032;-72
2022/09/16 18:16:23;;;;;;;6.00;1.85;;;;;;;;;;5111444;28;20020;-71
2022/09/16 18:19:16;;;;;;;4.00;1.80;;;;;;;;;;5111691;27;20562;-72